createdAt,value
2022-09-03T00:01:11.747Z,42.47
2022-09-03T00:03:46.056Z,42.61
2022-09-03T00:06:18.323Z,42.78
2022-09-03T00:08:52.505Z,42.94
2022-09-03T00:11:25.686Z,42.99
2022-09-03T00:14:03.221Z,43.13
2022-09-03T00:16:44.596Z,43.14
2022-09-03T00:19:17.634Z,43.65
2022-09-03T00:21:52.133Z,43.39
2022-09-03T00:24:24.679Z,43.56
2022-09-03T00:26:58.795Z,43.47
2022-09-03T00:29:35.734Z,43.76
2022-09-03T00:32:10.707Z,43.71
2022-09-03T00:34:43.495Z,43.98
2022-09-03T00:37:15.285Z,43.88
2022-09-03T00:39:44.412Z,44.04
2022-09-03T00:42:38.512Z,43.95
2022-09-03T00:45:33.902Z,44.01
2022-09-03T00:48:19.458Z,44.16
2022-09-03T00:51:12.946Z,44.25
2022-09-03T00:53:52.371Z,44.17
2022-09-03T00:56:31.273Z,44.56
2022-09-03T00:59:15.191Z,44.71
2022-09-03T01:01:52.341Z,44.61
2022-09-03T01:04:39.914Z,45.00
2022-09-03T01:07:19.592Z,44.99
2022-09-03T01:09:54.860Z,44.91
2022-09-03T01:12:43.024Z,45.14
2022-09-03T01:15:19.368Z,45.05
2022-09-03T01:18:05.273Z,45.37
2022-09-03T01:20:55.747Z,45.32
2022-09-03T01:24:07.406Z,45.46
2022-09-03T01:26:55.225Z,45.42
2022-09-03T01:29:29.771Z,45.47
2022-09-03T01:32:08.576Z,45.43
2022-09-03T01:34:50.408Z,45.48
2022-09-03T01:37:33.347Z,45.45
2022-09-03T01:40:14.500Z,45.48
2022-09-03T01:43:01.447Z,45.38
2022-09-03T01:45:51.247Z,45.55
2022-09-03T01:48:44.308Z,45.54
2022-09-03T01:51:21.661Z,45.72
2022-09-03T01:54:43.680Z,45.66
2022-09-03T01:57:38.311Z,45.72
2022-09-03T02:00:13.454Z,45.49
2022-09-03T02:02:47.446Z,45.48
2022-09-03T02:05:22.878Z,45.61
2022-09-03T02:08:00.998Z,45.85
2022-09-03T02:10:34.303Z,45.76
2022-09-03T02:13:08.151Z,45.78
2022-09-03T02:15:42.078Z,45.59
2022-09-03T02:18:18.012Z,45.59
2022-09-03T02:20:48.263Z,45.54
2022-09-03T02:23:18.115Z,45.70
2022-09-03T02:26:00.231Z,45.51
2022-09-03T02:28:30.991Z,45.71
2022-09-03T02:31:00.147Z,45.96
2022-09-03T02:33:39.277Z,45.99
2022-09-03T02:36:11.622Z,46.26
2022-09-03T02:38:42.672Z,46.71
2022-09-03T02:41:15.060Z,47.15
2022-09-03T02:43:50.434Z,47.66
2022-09-03T02:46:24.382Z,47.97
2022-09-03T02:48:54.492Z,47.89
2022-09-03T02:51:22.968Z,47.68
2022-09-03T02:53:51.924Z,47.35
2022-09-03T02:56:20.301Z,47.44
2022-09-03T02:58:48.701Z,48.48
2022-09-03T03:01:23.983Z,47.45
2022-09-03T03:03:54.725Z,47.42
2022-09-03T03:06:23.247Z,46.77
2022-09-03T03:08:52.267Z,46.45
2022-09-03T03:11:22.345Z,45.99
2022-09-03T03:13:50.783Z,46.41
2022-09-03T03:16:20.130Z,46.39
2022-09-03T03:18:48.765Z,46.51
2022-09-03T03:21:20.089Z,45.98
2022-09-03T03:23:48.521Z,46.53
2022-09-03T03:26:19.526Z,46.61
2022-09-03T03:28:48.821Z,46.44
2022-09-03T03:31:19.866Z,46.42
2022-09-03T03:33:53.159Z,46.44
2022-09-03T03:36:24.828Z,46.30
2022-09-03T03:38:55.913Z,46.29
2022-09-03T03:41:26.809Z,46.36
2022-09-03T03:43:56.428Z,46.44
2022-09-03T03:46:26.151Z,46.58
2022-09-03T03:48:55.049Z,46.63
2022-09-03T03:51:24.826Z,46.87
2022-09-03T03:53:57.183Z,47.16
2022-09-03T03:56:27.508Z,46.20
2022-09-03T03:58:57.240Z,45.80
2022-09-03T04:01:28.075Z,46.03
2022-09-03T04:03:57.796Z,45.49
2022-09-03T04:06:29.039Z,45.78
2022-09-03T04:08:57.776Z,45.74
2022-09-03T04:11:26.628Z,45.91
2022-09-03T04:13:55.665Z,45.63
2022-09-03T04:16:26.254Z,46.02
2022-09-03T04:18:55.847Z,46.32
2022-09-03T04:21:28.483Z,45.97
2022-09-03T04:23:58.598Z,46.03
2022-09-03T04:26:31.423Z,45.85
2022-09-03T04:29:01.079Z,46.08
2022-09-03T04:31:30.614Z,45.97
2022-09-03T04:34:00.658Z,45.97
2022-09-03T04:36:32.032Z,45.96
2022-09-03T04:39:02.691Z,46.26
2022-09-03T04:41:33.009Z,46.40
2022-09-03T04:44:01.963Z,46.56
2022-09-03T04:46:33.983Z,47.06
2022-09-03T04:49:03.210Z,47.42
2022-09-03T04:51:33.028Z,47.68
2022-09-03T04:54:03.575Z,47.85
2022-09-03T04:56:34.533Z,48.06
2022-09-03T04:59:06.375Z,48.47
2022-09-03T05:01:37.062Z,48.42
2022-09-03T05:04:06.997Z,48.48
2022-09-03T05:06:38.417Z,48.46
2022-09-03T05:09:07.713Z,48.58
2022-09-03T05:11:36.136Z,48.32
2022-09-03T05:14:05.943Z,48.31
2022-09-03T05:16:34.495Z,48.57
2022-09-03T05:19:03.692Z,48.44
2022-09-03T05:21:32.218Z,48.55
2022-09-03T05:24:02.976Z,48.61
2022-09-03T05:26:34.093Z,48.63
2022-09-03T05:29:07.649Z,48.51
2022-09-03T05:31:39.319Z,48.46
2022-09-03T05:34:10.132Z,48.74
2022-09-03T05:36:42.430Z,48.82
2022-09-03T05:39:12.178Z,48.74
2022-09-03T05:41:40.568Z,48.80
2022-09-03T05:44:09.282Z,48.90
2022-09-03T05:46:38.182Z,49.08
2022-09-03T05:49:08.610Z,49.11
2022-09-03T05:51:39.497Z,49.19
2022-09-03T05:54:08.719Z,49.18
2022-09-03T05:56:41.312Z,49.43
2022-09-03T05:59:13.720Z,49.43
2022-09-03T06:01:47.793Z,49.64
2022-09-03T06:04:20.806Z,49.89
2022-09-03T06:06:50.074Z,49.92
2022-09-03T06:09:20.854Z,50.02
2022-09-03T06:11:50.835Z,50.13
2022-09-03T06:14:22.075Z,50.37
2022-09-03T06:16:52.868Z,50.49
2022-09-03T06:19:21.849Z,50.70
2022-09-03T06:21:50.237Z,50.55
2022-09-03T06:24:23.219Z,50.86
2022-09-03T06:26:56.554Z,50.94
2022-09-03T06:29:24.937Z,51.19
2022-09-03T06:31:53.393Z,51.03
2022-09-03T06:34:22.803Z,51.40
2022-09-03T06:36:54.661Z,51.44
2022-09-03T06:39:23.533Z,51.50
2022-09-03T06:41:53.152Z,51.45
2022-09-03T06:44:29.772Z,51.33
2022-09-03T06:47:01.409Z,51.41
2022-09-03T06:49:30.756Z,51.37
2022-09-03T06:51:59.105Z,51.46
2022-09-03T06:54:27.504Z,51.61
2022-09-03T06:56:56.023Z,51.57
2022-09-03T06:59:24.409Z,51.52
2022-09-03T07:01:55.203Z,51.35
2022-09-03T07:04:24.977Z,51.57
2022-09-03T07:06:53.354Z,51.76
2022-09-03T07:09:21.759Z,52.26
2022-09-03T07:11:50.155Z,53.30
2022-09-03T07:14:21.314Z,53.72
2022-09-03T07:16:50.963Z,54.12
2022-09-03T07:19:20.826Z,54.74
2022-09-03T07:21:50.765Z,56.09
2022-09-03T07:24:22.266Z,55.32
2022-09-03T07:26:51.311Z,55.66
2022-09-03T07:29:21.768Z,56.56
2022-09-03T07:31:53.036Z,57.17
2022-09-03T07:34:26.576Z,57.71
2022-09-03T07:36:55.457Z,57.57
2022-09-03T07:39:24.174Z,58.43
2022-09-03T07:41:52.658Z,58.69
2022-09-03T07:44:21.571Z,59.12
2022-09-03T07:46:51.914Z,59.57
2022-09-03T07:49:23.072Z,60.04
2022-09-03T07:51:54.040Z,60.87
2022-09-03T07:54:24.205Z,61.29
2022-09-03T07:56:52.875Z,60.29
2022-09-03T07:59:23.065Z,60.55
2022-09-03T08:01:52.253Z,60.74
2022-09-03T08:04:23.004Z,60.37
2022-09-03T08:06:55.459Z,60.56
2022-09-03T08:09:24.069Z,61.01
2022-09-03T08:11:52.527Z,61.55
2022-09-03T08:14:20.924Z,61.55
2022-09-03T08:16:49.457Z,61.83
2022-09-03T08:19:19.359Z,62.32
2022-09-03T08:21:49.271Z,63.85
2022-09-03T08:24:21.057Z,64.77
2022-09-03T08:26:52.233Z,64.62
2022-09-03T08:29:22.044Z,65.08
2022-09-03T08:31:50.766Z,66.21
2022-09-03T08:34:19.477Z,68.84
2022-09-03T08:36:50.509Z,71.28
2022-09-03T08:39:20.113Z,72.81
2022-09-03T08:42:33.331Z,75.75
2022-09-03T08:45:04.413Z,78.25
2022-09-03T08:47:39.287Z,77.62
2022-09-03T08:50:18.214Z,77.00
2022-09-03T08:52:51.479Z,77.78
2022-09-03T08:55:26.690Z,77.51
2022-09-03T08:58:03.314Z,77.07
2022-09-03T09:00:48.995Z,76.36
2022-09-03T09:03:44.380Z,77.65
2022-09-03T09:06:23.344Z,74.28
2022-09-03T09:09:06.756Z,74.15
2022-09-03T09:11:49.966Z,73.01
2022-09-03T09:14:26.919Z,72.83
2022-09-03T09:17:10.075Z,68.75
2022-09-03T09:19:48.171Z,68.67
2022-09-03T09:22:26.786Z,67.43
2022-09-03T09:25:00.694Z,66.50
2022-09-03T09:27:30.875Z,63.56
2022-09-03T09:30:02.993Z,62.69
2022-09-03T09:32:32.070Z,61.45
2022-09-03T09:35:00.439Z,61.52
2022-09-03T09:37:29.095Z,60.31
2022-09-03T09:40:02.268Z,61.16
2022-09-03T09:42:31.788Z,59.28
2022-09-03T09:45:12.147Z,59.92
2022-09-03T09:47:41.659Z,60.34
2022-09-03T09:50:25.996Z,61.16
2022-09-03T09:53:05.440Z,63.04
2022-09-03T09:55:37.572Z,63.16
2022-09-03T09:58:14.447Z,63.18
2022-09-03T10:00:43.230Z,64.49
2022-09-03T10:03:13.807Z,63.49
2022-09-03T10:05:43.889Z,63.52
2022-09-03T10:08:22.753Z,62.97
2022-09-03T10:10:53.203Z,63.11
2022-09-03T10:13:26.026Z,62.55
2022-09-03T10:16:00.226Z,62.90
2022-09-03T10:18:40.688Z,63.34
2022-09-03T10:21:15.619Z,63.57
2022-09-03T10:24:03.633Z,64.59
2022-09-03T10:26:38.371Z,64.64
2022-09-03T10:29:09.570Z,63.69
2022-09-03T10:31:56.970Z,62.73
2022-09-03T10:34:37.985Z,61.89
2022-09-03T10:37:20.810Z,59.23
2022-09-03T10:40:00.787Z,58.20
2022-09-03T10:42:45.691Z,56.22
2022-09-03T10:45:21.320Z,54.94
2022-09-03T10:48:27.995Z,54.99
2022-09-03T10:51:00.620Z,56.13
2022-09-03T10:53:44.639Z,56.75
2022-09-03T10:56:18.448Z,55.84
2022-09-03T10:59:33.970Z,56.19
2022-09-03T11:02:20.552Z,56.45
2022-09-03T11:04:57.943Z,56.19
2022-09-03T11:07:33.920Z,56.12
2022-09-03T11:10:15.151Z,56.51
2022-09-03T11:12:48.843Z,56.32
2022-09-03T11:15:29.592Z,56.22
2022-09-03T11:18:05.754Z,56.19
2022-09-03T11:20:35.177Z,56.34
2022-09-03T11:23:07.010Z,56.34
2022-09-03T11:25:45.433Z,56.45
2022-09-03T11:28:28.432Z,56.82
2022-09-03T11:31:14.730Z,56.86
2022-09-03T11:33:47.626Z,57.03
2022-09-03T11:36:30.510Z,55.82
2022-09-03T11:39:00.561Z,53.75
2022-09-03T11:41:34.899Z,52.70
2022-09-03T11:44:18.572Z,51.91
2022-09-03T11:46:57.744Z,51.66
2022-09-03T11:49:31.475Z,51.15
2022-09-03T11:52:02.642Z,50.34
2022-09-03T11:54:34.615Z,49.24
2022-09-03T11:57:14.012Z,48.54
2022-09-03T11:59:45.075Z,47.44
2022-09-03T12:02:28.237Z,47.56
2022-09-03T12:05:21.301Z,47.40
2022-09-03T12:08:42.510Z,47.43
2022-09-03T12:11:30.455Z,46.63
2022-09-03T12:14:13.950Z,46.17
2022-09-03T12:17:19.349Z,47.28
2022-09-03T12:19:53.832Z,47.38
2022-09-03T12:22:24.739Z,47.06
2022-09-03T12:24:53.596Z,47.37
2022-09-03T12:27:25.341Z,48.10
2022-09-03T12:29:59.952Z,48.38
2022-09-03T12:32:32.674Z,49.32
2022-09-03T12:35:57.707Z,49.81
2022-09-03T12:38:06.948Z,49.13
2022-09-03T12:41:27.096Z,49.42
2022-09-03T12:43:38.618Z,49.13
2022-09-03T12:46:16.460Z,48.81
2022-09-03T12:51:49.064Z,50.32
2022-09-03T12:54:20.134Z,49.83
2022-09-03T12:56:56.170Z,50.05
2022-09-03T12:59:27.855Z,49.87
2022-09-03T13:02:01.972Z,49.62
2022-09-03T13:04:36.129Z,48.87
2022-09-03T13:07:08.185Z,49.53
2022-09-03T13:09:39.738Z,49.51
2022-09-03T13:12:08.977Z,49.49
2022-09-03T13:14:47.284Z,49.45
2022-09-03T13:17:49.793Z,49.46
2022-09-03T13:20:32.206Z,50.22
2022-09-03T13:23:16.860Z,49.71
2022-09-03T13:25:57.207Z,49.38
2022-09-03T13:28:41.714Z,50.03
2022-09-03T13:31:27.062Z,50.41
2022-09-03T13:34:02.808Z,50.49
2022-09-03T13:36:39.919Z,50.08
2022-09-03T13:39:27.236Z,50.38
2022-09-03T13:42:06.984Z,50.00
2022-09-03T13:44:44.559Z,49.98
2022-09-03T13:47:29.124Z,49.87
2022-09-03T13:50:22.206Z,49.93
2022-09-03T13:52:59.431Z,50.33
2022-09-03T13:55:34.732Z,49.68
2022-09-03T13:58:08.194Z,49.34
2022-09-03T14:00:44.841Z,49.48
2022-09-03T14:03:26.818Z,48.83
2022-09-03T14:06:08.914Z,49.24
2022-09-03T14:09:00.624Z,48.87
2022-09-03T14:11:37.012Z,48.34
2022-09-03T14:14:17.675Z,48.58
2022-09-03T14:16:51.631Z,49.19
2022-09-03T14:19:30.119Z,48.80
2022-09-03T14:22:03.170Z,49.24
2022-09-03T14:24:47.221Z,48.49
2022-09-03T14:27:25.739Z,48.71
2022-09-03T14:30:00.339Z,48.99
2022-09-03T14:32:42.342Z,48.75
2022-09-03T14:35:34.645Z,49.36
2022-09-03T14:39:03.743Z,49.29
2022-09-03T14:42:14.124Z,49.39
2022-09-03T14:45:30.947Z,50.05
2022-09-03T14:48:31.874Z,50.44
2022-09-03T14:51:20.905Z,50.59
2022-09-03T14:54:28.797Z,49.98
2022-09-03T14:57:14.956Z,50.54
2022-09-03T15:00:04.828Z,51.02
2022-09-03T15:03:30.623Z,50.75
2022-09-03T15:06:16.628Z,50.74
2022-09-03T15:09:01.295Z,50.25
2022-09-03T15:11:34.062Z,49.88
2022-09-03T15:14:11.925Z,50.90
2022-09-03T15:16:52.892Z,50.41
2022-09-03T15:19:52.426Z,50.23
2022-09-03T15:22:38.938Z,50.12
2022-09-03T15:25:21.803Z,49.38
2022-09-03T15:28:08.720Z,49.03
2022-09-03T15:30:46.030Z,49.45
2022-09-03T15:33:25.334Z,48.83
2022-09-03T15:36:19.532Z,50.21
2022-09-03T15:38:56.545Z,49.59
2022-09-03T15:41:42.718Z,49.46
2022-09-03T15:44:19.473Z,49.78
2022-09-03T15:46:58.819Z,50.34
2022-09-03T15:49:46.359Z,50.63
2022-09-03T15:52:31.546Z,51.06
2022-09-03T15:55:09.062Z,51.64
2022-09-03T15:57:47.688Z,51.84
2022-09-03T16:00:21.494Z,52.14
2022-09-03T16:03:00.216Z,52.59
2022-09-03T16:05:41.231Z,52.29
2022-09-03T16:08:21.043Z,52.58
2022-09-03T16:11:03.692Z,52.79
2022-09-03T16:13:49.393Z,53.19
2022-09-03T16:16:26.276Z,53.64
2022-09-03T16:19:04.485Z,53.23
2022-09-03T16:21:40.707Z,53.26
2022-09-03T16:24:19.093Z,52.37
2022-09-03T16:26:56.684Z,52.33
2022-09-03T16:29:31.056Z,52.44
2022-09-03T16:32:27.211Z,53.07
2022-09-03T16:35:11.775Z,53.30
2022-09-03T16:38:11.105Z,54.25
2022-09-03T16:40:47.786Z,54.08
2022-09-03T16:43:40.688Z,54.00
2022-09-03T16:46:26.057Z,54.65
2022-09-03T16:49:27.016Z,54.59
2022-09-03T16:52:07.743Z,54.59
2022-09-03T16:54:55.937Z,54.84
2022-09-03T16:57:44.195Z,55.23
2022-09-03T17:00:15.360Z,55.77
2022-09-03T17:03:33.857Z,55.88
2022-09-03T17:06:41.608Z,55.37
2022-09-03T17:09:27.105Z,55.37
2022-09-03T17:12:08.644Z,55.36
2022-09-03T17:15:01.305Z,55.94
2022-09-03T17:17:49.913Z,56.20
2022-09-03T17:20:24.616Z,56.27
2022-09-03T17:23:09.708Z,56.29
2022-09-03T17:25:41.819Z,57.18
2022-09-03T17:28:26.228Z,57.19
2022-09-03T17:30:59.929Z,56.98
2022-09-03T17:33:58.645Z,57.40
2022-09-03T17:36:31.454Z,57.97
2022-09-03T17:39:23.620Z,58.08
2022-09-03T17:41:55.457Z,57.80
2022-09-03T17:44:43.356Z,57.70
2022-09-03T17:47:53.244Z,57.83
2022-09-03T17:50:26.263Z,57.93
2022-09-03T17:52:58.711Z,58.38
2022-09-03T17:55:35.036Z,58.97
2022-09-03T17:58:14.508Z,59.36
2022-09-03T18:00:53.593Z,59.45
2022-09-03T18:03:30.205Z,59.51
2022-09-03T18:06:01.968Z,59.49
2022-09-03T18:08:37.667Z,59.95
2022-09-03T18:11:12.829Z,59.70
2022-09-03T18:13:52.509Z,60.55
2022-09-03T18:16:28.530Z,60.61
2022-09-03T18:19:04.835Z,60.76
2022-09-03T18:21:56.919Z,61.06
2022-09-03T18:24:50.772Z,61.78
2022-09-03T18:27:41.514Z,62.17
2022-09-03T18:30:31.503Z,62.49
2022-09-03T18:33:18.065Z,62.57
2022-09-03T18:36:05.441Z,62.93
2022-09-03T18:38:55.230Z,62.64
2022-09-03T18:42:11.924Z,62.03
2022-09-03T18:45:22.162Z,62.92
2022-09-03T18:48:27.646Z,62.95
2022-09-03T18:51:24.254Z,62.61
2022-09-03T18:54:26.182Z,62.34
2022-09-03T18:57:13.469Z,62.79
2022-09-03T19:00:28.576Z,63.04
2022-09-03T19:03:44.455Z,63.38
2022-09-03T19:06:42.489Z,63.14
2022-09-03T19:09:39.489Z,63.02
2022-09-03T19:12:41.244Z,62.95
2022-09-03T19:15:33.879Z,63.68
2022-09-03T19:18:34.010Z,64.23
2022-09-03T19:21:31.551Z,64.16
2022-09-03T19:24:21.172Z,64.42
2022-09-03T19:27:47.712Z,64.42
2022-09-03T19:30:28.933Z,64.39
2022-09-03T19:33:32.765Z,64.82
2022-09-03T19:36:28.776Z,65.60
2022-09-03T19:39:32.525Z,65.61
2022-09-03T19:42:29.604Z,65.83
2022-09-03T19:45:29.376Z,66.00
2022-09-03T19:48:28.281Z,65.92
2022-09-03T19:51:26.052Z,66.15
2022-09-03T19:54:13.541Z,66.08
2022-09-03T19:57:00.500Z,66.48
2022-09-03T19:59:55.288Z,66.36
2022-09-03T20:02:42.977Z,66.93
2022-09-03T20:05:36.128Z,67.34
2022-09-03T20:08:24.775Z,67.51
2022-09-03T20:10:59.040Z,67.19
2022-09-03T20:13:27.601Z,67.82
2022-09-03T20:16:02.906Z,68.17
2022-09-03T20:18:43.877Z,68.49
2022-09-03T20:21:21.944Z,68.81
2022-09-03T20:23:59.457Z,68.90
2022-09-03T20:26:43.205Z,69.31
2022-09-03T20:29:51.673Z,69.90
2022-09-03T20:32:43.091Z,70.09
2022-09-03T20:35:20.450Z,70.30
2022-09-03T20:38:03.825Z,70.30
2022-09-03T20:40:44.520Z,70.25
2022-09-03T20:43:41.694Z,70.16
2022-09-03T20:46:27.731Z,70.34
2022-09-03T20:49:07.768Z,70.30
2022-09-03T20:51:44.252Z,70.28
2022-09-03T20:54:15.481Z,70.22
2022-09-03T20:57:18.105Z,69.92
2022-09-03T21:00:03.897Z,69.55
2022-09-03T21:02:53.436Z,70.11
2022-09-03T21:05:29.033Z,70.43
2022-09-03T21:08:11.876Z,70.87
2022-09-03T21:10:50.025Z,70.79
2022-09-03T21:13:38.206Z,70.97
2022-09-03T21:16:25.308Z,70.91
2022-09-03T21:19:05.938Z,71.49
2022-09-03T21:21:49.105Z,71.68
2022-09-03T21:24:22.085Z,71.82
2022-09-03T21:26:57.102Z,72.04
2022-09-03T21:29:30.637Z,72.10
2022-09-03T21:32:06.030Z,71.98
2022-09-03T21:34:42.105Z,71.92
2022-09-03T21:37:13.956Z,71.84
2022-09-03T21:39:45.536Z,72.09
2022-09-03T21:42:22.449Z,71.97
2022-09-03T21:45:01.442Z,72.43
2022-09-03T21:47:32.128Z,72.89
2022-09-03T21:50:14.399Z,73.20
2022-09-03T21:52:53.246Z,72.88
2022-09-03T21:55:28.926Z,73.33
2022-09-03T21:58:17.275Z,73.70
2022-09-03T22:00:49.593Z,74.51
2022-09-03T22:03:18.288Z,74.87
2022-09-03T22:05:55.544Z,74.94
2022-09-03T22:08:31.887Z,74.99
2022-09-03T22:11:09.226Z,75.23
2022-09-03T22:13:48.509Z,75.73
2022-09-03T22:16:26.755Z,76.36
2022-09-03T22:18:55.850Z,76.62
2022-09-03T22:21:34.097Z,76.75
2022-09-03T22:24:14.706Z,77.01
2022-09-03T22:26:52.263Z,77.15
2022-09-03T22:29:37.637Z,77.90
2022-09-03T22:32:24.852Z,78.39
2022-09-03T22:35:18.808Z,78.67
2022-09-03T22:38:04.173Z,79.31
2022-09-03T22:40:41.043Z,79.38
2022-09-03T22:43:35.236Z,79.71
2022-09-03T22:46:14.140Z,80.07
2022-09-03T22:49:15.849Z,79.47
2022-09-03T22:52:02.673Z,79.89
2022-09-03T22:54:48.009Z,80.12
2022-09-03T22:57:19.605Z,80.06
2022-09-03T22:59:59.128Z,80.52
2022-09-03T23:02:30.650Z,80.37
2022-09-03T23:05:07.347Z,80.63
2022-09-03T23:07:49.736Z,80.48
2022-09-03T23:10:26.092Z,80.56
2022-09-03T23:13:05.590Z,80.52
2022-09-03T23:15:37.445Z,80.96
2022-09-03T23:18:10.790Z,81.36
2022-09-03T23:20:45.832Z,81.65
2022-09-03T23:23:19.524Z,82.77
2022-09-03T23:25:54.919Z,83.22
2022-09-03T23:28:29.499Z,82.54
2022-09-03T23:31:11.381Z,82.35
2022-09-03T23:33:40.813Z,81.78
2022-09-03T23:36:51.006Z,82.96
2022-09-03T23:39:28.295Z,83.44
2022-09-03T23:42:11.994Z,82.80
2022-09-03T23:44:59.106Z,83.63
2022-09-03T23:47:42.240Z,84.47
2022-09-03T23:50:29.014Z,85.36
2022-09-03T23:53:25.373Z,86.11
2022-09-03T23:56:13.728Z,86.41
2022-09-03T23:58:57.117Z,85.95
